createdAt,value
2024-04-24T00:00:08.747Z,10.56
2024-04-24T00:02:35.415Z,10.56
2024-04-24T00:05:05.536Z,10.55
2024-04-24T00:07:32.671Z,10.56
2024-04-24T00:09:59.620Z,10.55
2024-04-24T00:12:26.273Z,10.54
2024-04-24T00:14:52.997Z,10.56
2024-04-24T00:17:19.749Z,10.55
2024-04-24T00:19:46.531Z,10.54
2024-04-24T00:22:13.222Z,10.54
2024-04-24T00:24:39.965Z,10.53
2024-04-24T00:27:06.670Z,10.52
2024-04-24T00:29:33.360Z,10.52
2024-04-24T00:32:06.842Z,10.51
2024-04-24T00:34:34.323Z,10.50
2024-04-24T00:37:01.097Z,10.47
2024-04-24T00:39:27.854Z,10.46
2024-04-24T00:41:54.661Z,10.44
2024-04-24T00:44:21.434Z,10.43
2024-04-24T00:46:48.314Z,10.42
2024-04-24T00:49:15.259Z,10.42
2024-04-24T00:51:42.683Z,10.42
2024-04-24T00:54:09.699Z,10.43
2024-04-24T00:56:36.700Z,10.45
2024-04-24T00:59:03.485Z,10.46
2024-04-24T01:01:30.303Z,10.47
2024-04-24T01:03:57.060Z,10.48
2024-04-24T01:06:23.808Z,10.49
2024-04-24T01:08:50.542Z,10.51
2024-04-24T01:11:17.437Z,10.52
2024-04-24T01:13:44.294Z,10.54
2024-04-24T01:16:14.535Z,10.56
2024-04-24T01:18:48.789Z,10.59
2024-04-24T01:21:15.735Z,10.62
2024-04-24T01:24:06.384Z,10.61
2024-04-24T01:26:48.534Z,10.62
2024-04-24T01:29:15.499Z,10.63
2024-04-24T01:31:42.284Z,10.65
2024-04-24T01:34:09.090Z,10.66
2024-04-24T01:36:36.205Z,10.67
2024-04-24T01:39:05.759Z,10.66
2024-04-24T01:41:32.737Z,10.67
2024-04-24T01:43:59.490Z,10.67
2024-04-24T01:46:26.137Z,10.64
2024-04-24T01:48:53.242Z,10.61
2024-04-24T01:51:19.981Z,10.59
2024-04-24T01:53:46.684Z,10.55
2024-04-24T01:56:13.724Z,10.52
2024-04-24T01:58:40.533Z,10.53
2024-04-24T02:01:07.265Z,10.52
2024-04-24T02:03:34.015Z,10.53
2024-04-24T02:06:01.232Z,10.54
2024-04-24T02:08:27.999Z,10.52
2024-04-24T02:10:54.739Z,10.52
2024-04-24T02:13:21.409Z,10.53
2024-04-24T02:15:48.115Z,10.52
2024-04-24T02:18:14.980Z,10.53
2024-04-24T02:20:41.726Z,10.52
2024-04-24T02:23:08.964Z,10.53
2024-04-24T02:25:35.816Z,10.54
2024-04-24T02:28:03.736Z,10.54
2024-04-24T02:30:30.822Z,10.55
2024-04-24T02:32:57.658Z,10.55
2024-04-24T02:35:24.399Z,10.56
2024-04-24T02:37:51.262Z,10.54
2024-04-24T02:40:17.934Z,10.49
2024-04-24T02:42:44.650Z,10.45
2024-04-24T02:45:11.344Z,10.43
2024-04-24T02:47:38.199Z,10.38
2024-04-24T02:50:05.095Z,10.35
2024-04-24T02:52:31.879Z,10.33
2024-04-24T02:54:58.547Z,10.31
2024-04-24T02:57:25.236Z,10.28
2024-04-24T02:59:51.937Z,10.24
2024-04-24T03:02:18.767Z,10.20
2024-04-24T03:04:45.596Z,10.18
2024-04-24T03:07:12.265Z,10.14
2024-04-24T03:09:39.121Z,10.11
2024-04-24T03:12:05.930Z,10.08
2024-04-24T03:14:32.849Z,10.05
2024-04-24T03:16:59.656Z,9.96
2024-04-24T03:19:26.378Z,9.88
2024-04-24T03:21:53.068Z,9.85
2024-04-24T03:24:19.750Z,9.84
2024-04-24T03:26:46.412Z,9.82
2024-04-24T03:29:13.115Z,9.81
2024-04-24T03:31:39.837Z,9.81
2024-04-24T03:34:06.977Z,9.76
2024-04-24T03:36:33.695Z,9.70
2024-04-24T03:39:00.540Z,9.62
2024-04-24T03:41:27.358Z,9.55
2024-04-24T03:43:54.126Z,9.48
2024-04-24T03:46:20.847Z,9.39
2024-04-24T03:48:47.600Z,9.36
2024-04-24T03:51:14.307Z,9.32
2024-04-24T03:53:40.969Z,9.30
2024-04-24T03:56:08.321Z,9.27
2024-04-24T03:58:35.189Z,9.22
2024-04-24T04:01:02.014Z,9.17
2024-04-24T04:03:28.722Z,9.14
2024-04-24T04:05:55.390Z,9.13
2024-04-24T04:08:24.249Z,9.09
2024-04-24T04:10:51.169Z,9.03
2024-04-24T04:13:17.918Z,8.96
2024-04-24T04:15:44.630Z,8.93
2024-04-24T04:18:11.352Z,8.91
2024-04-24T04:20:38.073Z,8.91
2024-04-24T04:23:04.890Z,8.89
2024-04-24T04:25:31.588Z,8.87
2024-04-24T04:27:58.890Z,8.82
2024-04-24T04:30:25.688Z,8.83
2024-04-24T04:32:52.403Z,8.80
2024-04-24T04:35:19.413Z,8.66
2024-04-24T04:37:46.122Z,8.45
2024-04-24T04:40:12.844Z,8.27
2024-04-24T04:42:39.719Z,8.19
2024-04-24T04:45:07.363Z,8.18
2024-04-24T04:47:34.239Z,8.19
2024-04-24T04:50:01.052Z,8.17
2024-04-24T04:52:27.914Z,8.12
2024-04-24T04:54:54.557Z,8.17
2024-04-24T04:57:21.228Z,8.24
2024-04-24T04:59:48.160Z,8.31
2024-04-24T05:02:14.910Z,8.47
2024-04-24T05:04:41.723Z,8.63
2024-04-24T05:07:08.464Z,8.78
2024-04-24T05:09:36.780Z,8.95
2024-04-24T05:12:03.823Z,9.10
2024-04-24T05:14:30.724Z,9.22
2024-04-24T05:16:57.488Z,9.30
2024-04-24T05:19:24.357Z,9.36
2024-04-24T05:21:51.023Z,9.42
2024-04-24T05:24:17.763Z,9.48
2024-04-24T05:27:03.238Z,9.53
2024-04-24T05:29:29.940Z,9.60
2024-04-24T05:31:56.736Z,9.63
2024-04-24T05:34:24.706Z,9.65
2024-04-24T05:36:51.695Z,9.69
2024-04-24T05:39:18.418Z,9.76
2024-04-24T05:41:45.080Z,9.83
2024-04-24T05:44:11.933Z,9.91
2024-04-24T05:46:38.802Z,9.98
2024-04-24T05:49:05.435Z,10.05
2024-04-24T05:51:32.179Z,10.12
2024-04-24T05:53:58.929Z,10.17
2024-04-24T05:56:25.692Z,10.22
2024-04-24T05:58:52.424Z,10.26
2024-04-24T06:01:19.222Z,10.29
2024-04-24T06:03:45.969Z,10.28
2024-04-24T06:06:12.647Z,10.29
2024-04-24T06:08:39.332Z,10.33
2024-04-24T06:11:06.220Z,10.35
2024-04-24T06:13:33.087Z,10.42
2024-04-24T06:15:59.748Z,10.46
2024-04-24T06:18:26.455Z,10.51
2024-04-24T06:20:53.172Z,10.56
2024-04-24T06:23:19.974Z,10.65
2024-04-24T06:25:47.395Z,10.72
2024-04-24T06:28:14.141Z,10.80
2024-04-24T06:30:42.947Z,10.85
2024-04-24T06:33:09.808Z,10.93
2024-04-24T06:35:36.633Z,11.03
2024-04-24T06:38:03.702Z,11.12
2024-04-24T06:40:30.471Z,11.25
2024-04-24T06:42:57.218Z,11.40
2024-04-24T06:45:23.887Z,11.52
2024-04-24T06:47:50.673Z,11.67
2024-04-24T06:50:17.449Z,11.79
2024-04-24T06:52:44.151Z,11.92
2024-04-24T06:55:11.503Z,12.06
2024-04-24T06:57:38.151Z,12.20
2024-04-24T07:00:05.434Z,12.33
2024-04-24T07:02:32.133Z,12.47
2024-04-24T07:04:58.842Z,12.59
2024-04-24T07:07:25.536Z,12.74
2024-04-24T07:09:52.217Z,12.88
2024-04-24T07:12:19.227Z,13.02
2024-04-24T07:14:45.892Z,13.14
2024-04-24T07:17:13.666Z,13.28
2024-04-24T07:19:40.450Z,13.40
2024-04-24T07:22:07.777Z,13.52
2024-04-24T07:24:35.233Z,13.66
2024-04-24T07:27:01.959Z,13.76
2024-04-24T07:29:28.745Z,13.86
2024-04-24T07:31:55.491Z,13.96
2024-04-24T07:34:22.168Z,14.04
2024-04-24T07:36:48.865Z,14.14
2024-04-24T07:39:15.539Z,14.21
2024-04-24T07:41:43.590Z,14.31
2024-04-24T07:44:10.745Z,14.38
2024-04-24T07:46:37.869Z,14.46
2024-04-24T07:49:04.690Z,14.53
2024-04-24T07:51:31.461Z,14.60
2024-04-24T07:53:58.179Z,14.68
2024-04-24T07:56:25.071Z,14.75
2024-04-24T07:58:51.951Z,14.80
2024-04-24T08:01:22.657Z,14.87
2024-04-24T08:03:49.762Z,14.94
2024-04-24T08:06:16.599Z,15.02
2024-04-24T08:08:43.436Z,15.08
2024-04-24T08:11:10.258Z,15.12
2024-04-24T08:13:37.039Z,15.18
2024-04-24T08:16:03.915Z,15.20
2024-04-24T08:18:30.644Z,15.29
2024-04-24T08:20:57.825Z,15.37
2024-04-24T08:23:26.907Z,15.43
2024-04-24T08:25:55.013Z,15.52
2024-04-24T08:28:32.603Z,15.60
2024-04-24T08:31:05.594Z,15.68
2024-04-24T08:33:36.170Z,15.72
2024-04-24T08:36:05.151Z,15.77
2024-04-24T08:38:32.504Z,15.82
2024-04-24T08:41:07.021Z,15.87
2024-04-24T08:43:45.802Z,15.93
2024-04-24T08:46:13.250Z,15.97
2024-04-24T08:48:41.555Z,16.03
2024-04-24T08:51:12.551Z,16.09
2024-04-24T08:53:55.461Z,16.16
2024-04-24T08:56:23.731Z,16.23
2024-04-24T08:58:53.022Z,16.26
2024-04-24T09:01:22.209Z,16.29
2024-04-24T09:03:51.764Z,16.33
2024-04-24T09:06:19.267Z,16.36
2024-04-24T09:08:46.130Z,16.40
2024-04-24T09:11:13.099Z,16.41
2024-04-24T09:13:40.103Z,16.43
2024-04-24T09:16:08.655Z,16.45
2024-04-24T09:18:35.516Z,16.48
2024-04-24T09:21:03.607Z,16.50
2024-04-24T09:23:30.331Z,16.51
2024-04-24T09:25:58.889Z,16.53
2024-04-24T09:28:26.000Z,16.53
2024-04-24T09:30:53.974Z,16.53
2024-04-24T09:33:20.827Z,16.53
2024-04-24T09:35:47.899Z,16.50
2024-04-24T09:38:14.671Z,16.52
2024-04-24T09:40:41.597Z,16.53
2024-04-24T09:43:10.884Z,16.52
2024-04-24T09:45:37.617Z,16.53
2024-04-24T09:48:05.329Z,16.54
2024-04-24T09:50:39.439Z,16.58
2024-04-24T09:53:06.262Z,16.62
2024-04-24T09:55:38.499Z,16.66
2024-04-24T09:58:08.406Z,16.68
2024-04-24T10:00:36.599Z,16.70
2024-04-24T10:03:04.291Z,16.71
2024-04-24T10:05:36.029Z,16.74
2024-04-24T10:08:12.433Z,16.75
2024-04-24T10:10:41.191Z,16.74
2024-04-24T10:13:09.050Z,16.75
2024-04-24T10:15:44.643Z,16.77
2024-04-24T10:18:11.851Z,16.79
2024-04-24T10:20:42.539Z,16.78
2024-04-24T10:23:09.361Z,16.77
2024-04-24T10:25:36.558Z,16.78
2024-04-24T10:28:06.883Z,16.82
2024-04-24T10:30:37.210Z,16.85
2024-04-24T10:33:06.078Z,16.89
2024-04-24T10:35:33.194Z,16.94
2024-04-24T10:38:06.963Z,16.98
2024-04-24T10:40:34.463Z,17.00
2024-04-24T10:43:06.040Z,17.04
2024-04-24T10:45:42.160Z,17.07
2024-04-24T10:48:11.312Z,17.09
2024-04-24T10:50:39.606Z,17.09
2024-04-24T10:53:06.897Z,17.09
2024-04-24T10:55:33.768Z,17.11
2024-04-24T10:58:00.467Z,17.13
2024-04-24T11:00:31.173Z,17.14
2024-04-24T11:03:01.865Z,17.15
2024-04-24T11:05:32.803Z,17.17
2024-04-24T11:08:01.328Z,17.18
2024-04-24T11:10:29.440Z,17.20
2024-04-24T11:12:56.391Z,17.23
2024-04-24T11:15:27.622Z,17.24
2024-04-24T11:17:54.631Z,17.25
2024-04-24T11:20:22.836Z,17.23
2024-04-24T11:22:49.606Z,17.24
2024-04-24T11:25:19.019Z,17.24
2024-04-24T11:27:46.268Z,17.24
2024-04-24T11:30:14.911Z,17.21
2024-04-24T11:32:48.212Z,17.19
2024-04-24T11:35:16.200Z,17.21
2024-04-24T11:37:43.386Z,17.23
2024-04-24T11:40:11.216Z,17.16
2024-04-24T11:42:44.361Z,17.00
2024-04-24T11:45:12.235Z,16.78
2024-04-24T11:47:39.506Z,16.51
2024-04-24T11:50:07.917Z,16.28
2024-04-24T11:52:52.891Z,16.10
2024-04-24T11:55:20.757Z,16.02
2024-04-24T11:57:48.491Z,15.99
2024-04-24T12:00:15.866Z,15.94
2024-04-24T12:02:43.038Z,15.93
2024-04-24T12:05:10.186Z,15.91
2024-04-24T12:07:43.988Z,15.87
2024-04-24T12:10:12.362Z,15.86
2024-04-24T12:12:39.666Z,15.84
2024-04-24T12:15:07.063Z,15.77
2024-04-24T12:17:34.250Z,15.70
2024-04-24T12:20:02.818Z,15.62
2024-04-24T12:22:31.186Z,15.55
2024-04-24T12:24:58.158Z,15.49
2024-04-24T12:27:25.298Z,15.43
2024-04-24T12:29:52.489Z,15.42
2024-04-24T12:32:19.850Z,15.42
2024-04-24T12:34:47.038Z,15.42
2024-04-24T12:37:14.222Z,15.39
2024-04-24T12:39:41.426Z,15.40
2024-04-24T12:42:08.978Z,15.40
2024-04-24T12:44:36.067Z,15.38
2024-04-24T12:47:04.427Z,15.33
2024-04-24T12:49:31.622Z,15.26
2024-04-24T12:51:59.875Z,15.23
2024-04-24T12:54:27.055Z,15.25
2024-04-24T12:56:54.110Z,15.29
2024-04-24T12:59:21.285Z,15.30
2024-04-24T13:01:48.442Z,15.32
2024-04-24T13:04:18.015Z,15.32
2024-04-24T13:06:45.306Z,15.30
2024-04-24T13:09:12.506Z,15.31
2024-04-24T13:11:39.722Z,15.31
2024-04-24T13:14:11.438Z,15.29
2024-04-24T13:16:38.606Z,15.23
2024-04-24T13:19:05.806Z,15.20
2024-04-24T13:21:33.098Z,15.15
2024-04-24T13:24:00.071Z,15.11
2024-04-24T13:26:27.368Z,15.06
2024-04-24T13:28:54.408Z,15.04
2024-04-24T13:31:21.450Z,15.11
2024-04-24T13:33:48.533Z,15.23
2024-04-24T13:36:19.926Z,15.36
2024-04-24T13:38:49.222Z,15.45
2024-04-24T13:41:18.588Z,15.52
2024-04-24T13:43:46.739Z,15.61
2024-04-24T13:46:13.874Z,15.71
2024-04-24T13:48:42.064Z,15.79
2024-04-24T13:51:09.379Z,15.84
2024-04-24T13:53:36.697Z,15.91
2024-04-24T13:56:03.834Z,15.96
2024-04-24T13:58:30.974Z,15.98
2024-04-24T14:00:58.413Z,16.05
2024-04-24T14:03:25.553Z,16.13
2024-04-24T14:05:55.969Z,16.21
2024-04-24T14:08:23.830Z,16.30
2024-04-24T14:10:51.711Z,16.36
2024-04-24T14:13:18.863Z,16.37
2024-04-24T14:15:47.049Z,16.40
2024-04-24T14:18:14.055Z,16.41
2024-04-24T14:20:41.717Z,16.40
2024-04-24T14:23:08.982Z,16.39
2024-04-24T14:25:36.228Z,16.37
2024-04-24T14:28:03.540Z,16.32
2024-04-24T14:30:30.616Z,16.24
2024-04-24T14:32:57.865Z,16.16
2024-04-24T14:35:25.361Z,16.07
2024-04-24T14:37:52.708Z,15.98
2024-04-24T14:40:19.854Z,15.91
2024-04-24T14:42:49.594Z,15.87
2024-04-24T14:45:17.032Z,15.86
2024-04-24T14:47:44.667Z,15.89
2024-04-24T14:50:12.303Z,15.94
2024-04-24T14:52:39.518Z,16.00
2024-04-24T14:55:07.428Z,16.08
2024-04-24T14:57:34.761Z,16.14
2024-04-24T15:00:01.762Z,16.20
2024-04-24T15:02:29.029Z,16.23
2024-04-24T15:04:56.213Z,16.23
2024-04-24T15:07:23.299Z,16.21
2024-04-24T15:09:50.419Z,16.23
2024-04-24T15:12:17.635Z,16.23
2024-04-24T15:14:45.081Z,16.21
2024-04-24T15:17:12.240Z,16.19
2024-04-24T15:19:42.056Z,16.15
2024-04-24T15:22:09.500Z,16.06
2024-04-24T15:24:36.711Z,15.97
2024-04-24T15:27:03.877Z,15.88
2024-04-24T15:29:31.044Z,15.82
2024-04-24T15:31:58.350Z,15.80
2024-04-24T15:34:25.985Z,15.77
2024-04-24T15:36:53.558Z,15.75
2024-04-24T15:39:20.869Z,15.74
2024-04-24T15:41:49.731Z,15.73
2024-04-24T15:44:17.308Z,15.73
2024-04-24T15:46:45.169Z,15.72
2024-04-24T15:49:12.604Z,15.71
2024-04-24T15:51:42.005Z,15.69
2024-04-24T15:54:10.204Z,15.68
2024-04-24T15:56:39.080Z,15.66
2024-04-24T15:59:06.632Z,15.65
2024-04-24T16:01:34.291Z,15.61
2024-04-24T16:04:01.967Z,15.55
2024-04-24T16:06:30.368Z,15.52
2024-04-24T16:08:58.301Z,15.48
2024-04-24T16:11:26.697Z,15.44
2024-04-24T16:13:54.389Z,15.40
2024-04-24T16:16:22.126Z,15.39
2024-04-24T16:18:51.576Z,15.36
2024-04-24T16:21:20.641Z,15.36
2024-04-24T16:23:48.713Z,15.33
2024-04-24T16:26:16.769Z,15.31
2024-04-24T16:28:45.050Z,15.29
2024-04-24T16:31:13.968Z,15.28
2024-04-24T16:33:43.949Z,15.27
2024-04-24T16:36:14.197Z,15.27
2024-04-24T16:38:42.217Z,15.27
2024-04-24T16:41:16.850Z,15.24
2024-04-24T16:43:50.252Z,15.22
2024-04-24T16:46:20.747Z,15.20
2024-04-24T16:48:49.005Z,15.18
2024-04-24T16:51:17.207Z,15.17
2024-04-24T16:53:48.975Z,15.17
2024-04-24T16:56:19.804Z,15.17
2024-04-24T16:58:48.162Z,15.19
2024-04-24T17:01:17.937Z,15.19
2024-04-24T17:03:46.238Z,15.19
2024-04-24T17:06:14.231Z,15.21
2024-04-24T17:08:42.137Z,15.20
2024-04-24T17:11:10.220Z,15.19
2024-04-24T17:13:38.387Z,15.16
2024-04-24T17:16:06.676Z,15.14
2024-04-24T17:18:35.151Z,15.09
2024-04-24T17:21:04.683Z,15.05
2024-04-24T17:23:33.183Z,15.00
2024-04-24T17:26:03.070Z,14.96
2024-04-24T17:28:31.006Z,14.90
2024-04-24T17:30:59.339Z,14.87
2024-04-24T17:33:27.544Z,14.84
2024-04-24T17:35:58.993Z,14.79
2024-04-24T17:38:27.531Z,14.74
2024-04-24T17:40:56.191Z,14.73
2024-04-24T17:43:27.582Z,14.70
2024-04-24T17:45:56.458Z,14.68
2024-04-24T17:48:25.370Z,14.65
2024-04-24T17:50:53.702Z,14.59
2024-04-24T17:53:22.486Z,14.55
2024-04-24T17:55:52.848Z,14.48
2024-04-24T17:58:21.522Z,14.45
2024-04-24T18:00:50.868Z,14.39
2024-04-24T18:03:19.456Z,14.36
2024-04-24T18:05:49.071Z,14.32
2024-04-24T18:08:20.939Z,14.31
2024-04-24T18:10:50.408Z,14.27
2024-04-24T18:13:19.651Z,14.24
2024-04-24T18:15:49.139Z,14.22
2024-04-24T18:18:20.161Z,14.20
2024-04-24T18:20:48.856Z,14.18
2024-04-24T18:23:17.541Z,14.18
2024-04-24T18:25:46.039Z,14.17
2024-04-24T18:28:15.007Z,14.15
2024-04-24T18:30:43.576Z,14.14
2024-04-24T18:33:12.118Z,14.11
2024-04-24T18:35:40.930Z,14.07
2024-04-24T18:38:09.354Z,14.01
2024-04-24T18:40:37.872Z,13.90
2024-04-24T18:43:10.628Z,13.75
2024-04-24T18:45:39.347Z,13.53
2024-04-24T18:48:11.180Z,13.35
2024-04-24T18:50:40.854Z,13.19
2024-04-24T18:53:10.132Z,13.08
2024-04-24T18:55:38.903Z,13.02
2024-04-24T18:58:07.813Z,12.97
2024-04-24T19:00:37.730Z,12.93
2024-04-24T19:03:06.889Z,12.89
2024-04-24T19:05:35.765Z,12.84
2024-04-24T19:08:04.823Z,12.82
2024-04-24T19:10:33.728Z,12.79
2024-04-24T19:13:02.401Z,12.75
2024-04-24T19:15:32.441Z,12.74
2024-04-24T19:18:02.474Z,12.76
2024-04-24T19:20:34.046Z,12.77
2024-04-24T19:23:03.989Z,12.79
2024-04-24T19:25:33.967Z,12.76
2024-04-24T19:28:05.291Z,12.73
2024-04-24T19:30:34.250Z,12.66
2024-04-24T19:33:03.370Z,12.61
2024-04-24T19:35:32.914Z,12.56
2024-04-24T19:38:02.761Z,12.51
2024-04-24T19:40:34.210Z,12.49
2024-04-24T19:43:03.806Z,12.45
2024-04-24T19:45:35.835Z,12.38
2024-04-24T19:48:05.646Z,12.31
2024-04-24T19:50:35.286Z,12.24
2024-04-24T19:53:04.639Z,12.18
2024-04-24T19:55:38.179Z,12.10
2024-04-24T19:58:10.396Z,12.06
2024-04-24T20:00:39.719Z,12.02
2024-04-24T20:03:09.196Z,11.96
2024-04-24T20:05:38.486Z,11.92
2024-04-24T20:08:07.664Z,11.87
2024-04-24T20:10:36.998Z,11.82
2024-04-24T20:13:08.434Z,11.78
2024-04-24T20:15:39.598Z,11.75
2024-04-24T20:18:09.135Z,11.70
2024-04-24T20:20:38.597Z,11.66
2024-04-24T20:23:07.432Z,11.65
2024-04-24T20:25:36.662Z,11.61
2024-04-24T20:28:05.878Z,11.57
2024-04-24T20:30:35.972Z,11.56
2024-04-24T20:33:08.912Z,11.53
2024-04-24T20:35:38.478Z,11.50
2024-04-24T20:38:07.458Z,11.47
2024-04-24T20:40:37.184Z,11.44
2024-04-24T20:43:06.833Z,11.41
2024-04-24T20:45:36.013Z,11.36
2024-04-24T20:48:05.540Z,11.34
2024-04-24T20:50:34.766Z,11.33
2024-04-24T20:53:04.502Z,11.31
2024-04-24T20:55:34.118Z,11.36
2024-04-24T20:58:02.892Z,11.43
2024-04-24T21:00:32.204Z,11.49
2024-04-24T21:03:01.255Z,11.51
2024-04-24T21:05:30.020Z,11.53
2024-04-24T21:07:58.297Z,11.55
2024-04-24T21:10:26.814Z,11.56
2024-04-24T21:12:55.186Z,11.58
2024-04-24T21:15:23.325Z,11.59
2024-04-24T21:17:51.363Z,11.60
2024-04-24T21:20:20.995Z,11.61
2024-04-24T21:22:49.157Z,11.56
2024-04-24T21:25:17.168Z,11.56
2024-04-24T21:27:44.973Z,11.54
2024-04-24T21:30:13.326Z,11.53
2024-04-24T21:32:40.997Z,11.55
2024-04-24T21:35:09.350Z,11.55
2024-04-24T21:37:37.597Z,11.56
2024-04-24T21:40:05.547Z,11.52
2024-04-24T21:42:33.294Z,11.51
2024-04-24T21:45:00.703Z,11.46
2024-04-24T21:47:28.393Z,11.42
2024-04-24T21:49:56.192Z,11.42
2024-04-24T21:52:23.575Z,11.39
2024-04-24T21:54:51.069Z,11.38
2024-04-24T21:57:18.416Z,11.37
2024-04-24T21:59:45.845Z,11.33
2024-04-24T22:02:13.379Z,11.31
2024-04-24T22:04:41.213Z,11.33
2024-04-24T22:07:08.347Z,11.31
2024-04-24T22:09:35.658Z,11.29
2024-04-24T22:12:03.042Z,11.30
2024-04-24T22:14:30.268Z,11.31
2024-04-24T22:16:57.839Z,11.30
2024-04-24T22:19:25.175Z,11.25
2024-04-24T22:21:52.259Z,11.25
2024-04-24T22:24:20.113Z,11.24
2024-04-24T22:26:47.437Z,11.24
2024-04-24T22:29:14.647Z,11.23
2024-04-24T22:34:08.810Z,11.20
2024-04-24T22:36:35.872Z,11.21
2024-04-24T22:39:02.937Z,11.21
2024-04-24T22:41:29.915Z,11.18
2024-04-24T22:43:57.024Z,11.18
2024-04-24T22:46:23.945Z,11.18
2024-04-24T22:48:50.902Z,11.17
2024-04-24T22:51:17.872Z,11.16
2024-04-24T22:53:45.000Z,11.15
2024-04-24T22:56:13.219Z,11.12
2024-04-24T22:58:40.677Z,11.08
2024-04-24T23:01:07.720Z,11.01
2024-04-24T23:03:34.675Z,10.93
2024-04-24T23:06:01.560Z,10.86
2024-04-24T23:08:28.483Z,10.85
2024-04-24T23:10:55.183Z,10.83
2024-04-24T23:13:21.888Z,10.82
2024-04-24T23:15:48.608Z,10.80
2024-04-24T23:18:15.382Z,10.79
2024-04-24T23:20:42.394Z,10.78
2024-04-24T23:23:09.456Z,10.77
2024-04-24T23:25:36.179Z,10.77
2024-04-24T23:28:02.960Z,10.75
2024-04-24T23:30:29.741Z,10.74
2024-04-24T23:32:58.840Z,10.73
2024-04-24T23:35:25.768Z,10.73
2024-04-24T23:37:52.513Z,10.71
2024-04-24T23:40:19.238Z,10.64
2024-04-24T23:42:45.954Z,10.58
2024-04-24T23:45:12.795Z,10.54
2024-04-24T23:47:39.674Z,10.55
2024-04-24T23:50:06.623Z,10.54
2024-04-24T23:52:33.409Z,10.50
2024-04-24T23:55:00.148Z,10.47
2024-04-24T23:57:26.870Z,10.48
2024-04-24T23:59:53.705Z,10.45
